createdAt,value
2018-09-17T00:00:21.077Z,99.99
2018-09-17T00:01:20.998Z,99.99
2018-09-17T00:02:20.922Z,99.99
2018-09-17T00:03:20.899Z,99.99
2018-09-17T00:04:20.774Z,99.99
2018-09-17T00:05:20.700Z,99.99
2018-09-17T00:06:20.627Z,99.99
2018-09-17T00:07:20.553Z,99.99
2018-09-17T00:08:20.727Z,99.99
2018-09-17T00:09:20.405Z,99.99
2018-09-17T00:10:20.334Z,99.99
2018-09-17T00:11:20.257Z,99.99
2018-09-17T00:12:20.182Z,99.99
2018-09-17T00:13:20.110Z,99.99
2018-09-17T00:14:20.085Z,99.99
2018-09-17T00:15:19.962Z,99.99
2018-09-17T00:16:19.889Z,99.99
2018-09-17T00:17:19.814Z,99.99
2018-09-17T00:18:19.739Z,99.99
2018-09-17T00:19:19.669Z,99.99
2018-09-17T00:20:19.591Z,99.99
2018-09-17T00:21:19.518Z,99.99
2018-09-17T00:22:19.447Z,99.99
2018-09-17T00:23:19.371Z,99.99
2018-09-17T00:24:19.296Z,99.99
2018-09-17T00:25:19.222Z,99.99
2018-09-17T00:26:19.148Z,99.99
2018-09-17T00:27:19.075Z,99.99
2018-09-17T00:28:19.000Z,99.99
2018-09-17T00:29:18.927Z,99.99
2018-09-17T00:30:18.853Z,99.99
2018-09-17T00:31:18.783Z,99.99
2018-09-17T00:32:18.704Z,99.99
2018-09-17T00:33:18.629Z,99.99
2018-09-17T00:34:18.555Z,99.99
2018-09-17T00:35:18.480Z,99.99
2018-09-17T00:36:18.406Z,99.99
2018-09-17T00:37:18.334Z,99.99
2018-09-17T00:38:18.259Z,99.99
2018-09-17T00:39:18.184Z,99.99
2018-09-17T00:40:18.109Z,99.99
2018-09-17T00:41:18.035Z,99.99
2018-09-17T00:42:17.961Z,99.99
2018-09-17T00:43:17.888Z,99.99
2018-09-17T00:44:17.811Z,99.99
2018-09-17T00:45:17.737Z,99.99
2018-09-17T00:46:17.664Z,99.99
2018-09-17T00:47:17.589Z,99.99
2018-09-17T00:48:17.513Z,99.99
2018-09-17T00:49:17.439Z,99.99
2018-09-17T00:50:17.368Z,99.99
2018-09-17T00:51:17.290Z,99.99
2018-09-17T00:52:17.216Z,99.99
2018-09-17T00:53:17.143Z,99.99
2018-09-17T00:54:17.066Z,99.99
2018-09-17T00:55:16.992Z,99.99
2018-09-17T00:56:16.969Z,99.99
2018-09-17T00:57:16.842Z,99.99
2018-09-17T00:58:16.772Z,99.99
2018-09-17T00:59:16.694Z,99.99
2018-09-17T01:00:16.618Z,99.99
2018-09-17T01:01:16.544Z,99.99
2018-09-17T01:02:16.470Z,99.99
2018-09-17T01:03:16.397Z,99.99
2018-09-17T01:04:16.320Z,99.99
2018-09-17T01:05:16.246Z,99.99
2018-09-17T01:06:16.220Z,99.99
2018-09-17T01:07:16.097Z,99.99
2018-09-17T01:08:16.021Z,99.99
2018-09-17T01:09:15.951Z,99.99
2018-09-17T01:10:15.874Z,99.99
2018-09-17T01:11:15.798Z,99.99
2018-09-17T01:12:15.776Z,99.99
2018-09-17T01:13:15.648Z,99.99
2018-09-17T01:14:15.578Z,99.99
2018-09-17T01:15:15.499Z,99.99
2018-09-17T01:16:15.423Z,99.99
2018-09-17T01:17:15.400Z,99.99
2018-09-17T01:18:15.275Z,99.99
2018-09-17T01:19:15.201Z,99.99
2018-09-17T01:20:15.124Z,99.99
2018-09-17T01:21:15.051Z,99.99
2018-09-17T01:22:14.977Z,99.99
2018-09-17T01:23:14.903Z,99.99
2018-09-17T01:24:14.827Z,99.99
2018-09-17T01:25:14.753Z,99.99
2018-09-17T01:26:14.678Z,99.99
2018-09-17T01:27:14.604Z,99.99
2018-09-17T01:28:14.629Z,99.99
2018-09-17T01:29:14.456Z,99.99
2018-09-17T01:30:14.381Z,99.99
2018-09-17T01:31:14.305Z,99.99
2018-09-17T01:32:14.231Z,99.99
2018-09-17T01:33:14.407Z,99.99
2018-09-17T01:34:14.085Z,99.99
2018-09-17T01:35:14.007Z,99.99
2018-09-17T01:36:13.933Z,99.99
2018-09-17T01:37:13.857Z,99.99
2018-09-17T01:38:13.783Z,99.99
2018-09-17T01:39:13.708Z,99.99
2018-09-17T01:40:13.633Z,99.99
2018-09-17T01:41:13.558Z,99.99
2018-09-17T01:42:13.484Z,99.99
2018-09-17T01:43:13.460Z,99.99
2018-09-17T01:44:13.333Z,99.99
2018-09-17T01:45:13.260Z,99.99
2018-09-17T01:46:13.283Z,99.99
2018-09-17T01:47:13.110Z,99.99
2018-09-17T01:48:13.039Z,99.99
2018-09-17T01:49:12.960Z,99.99
2018-09-17T01:50:12.886Z,99.99
2018-09-17T01:51:12.811Z,99.99
2018-09-17T01:52:12.735Z,99.99
2018-09-17T01:53:12.665Z,99.99
2018-09-17T01:54:12.585Z,99.99
2018-09-17T01:55:12.513Z,99.99
2018-09-17T01:56:12.435Z,99.99
2018-09-17T01:57:12.359Z,99.99
2018-09-17T01:58:12.286Z,99.99
2018-09-17T01:59:12.212Z,99.99
2018-09-17T02:00:12.136Z,99.99
2018-09-17T02:01:12.063Z,99.99
2018-09-17T02:02:11.986Z,99.99
2018-09-17T02:03:11.912Z,99.99
2018-09-17T02:04:11.937Z,99.99
2018-09-17T02:05:11.762Z,99.99
2018-09-17T02:06:11.688Z,99.99
2018-09-17T02:07:11.612Z,99.99
2018-09-17T02:08:11.568Z,99.99
2018-09-17T02:09:11.541Z,99.99
2018-09-17T02:10:11.389Z,99.99
2018-09-17T02:11:11.317Z,99.99
2018-09-17T02:12:11.241Z,99.99
2018-09-17T02:13:11.164Z,99.99
2018-09-17T02:14:11.139Z,99.99
2018-09-17T02:15:11.014Z,99.99
2018-09-17T02:16:10.938Z,99.99
2018-09-17T02:17:10.864Z,99.99
2018-09-17T02:18:10.790Z,99.99
2018-09-17T02:19:10.716Z,99.99
2018-09-17T02:20:10.638Z,99.99
2018-09-17T02:21:10.564Z,99.99
2018-09-17T02:22:10.489Z,99.99
2018-09-17T02:23:10.414Z,99.99
2018-09-17T02:24:10.339Z,99.99
2018-09-17T02:25:10.268Z,99.99
2018-09-17T02:26:10.190Z,99.99
2018-09-17T02:27:10.114Z,99.99
2018-09-17T02:28:10.039Z,99.99
2018-09-17T02:29:09.965Z,99.99
2018-09-17T02:30:09.889Z,99.99
2018-09-17T02:31:09.814Z,99.99
2018-09-17T02:32:09.738Z,99.99
2018-09-17T02:33:09.663Z,99.99
2018-09-17T02:34:09.590Z,99.99
2018-09-17T02:35:09.513Z,99.99
2018-09-17T02:36:09.438Z,99.99
2018-09-17T02:37:09.363Z,99.99
2018-09-17T02:38:09.288Z,99.99
2018-09-17T02:39:09.212Z,99.99
2018-09-17T02:40:09.136Z,99.99
2018-09-17T02:41:09.061Z,99.99
2018-09-17T02:42:08.987Z,99.99
2018-09-17T02:43:08.911Z,99.99
2018-09-17T02:44:08.936Z,99.99
2018-09-17T02:45:08.761Z,99.99
2018-09-17T02:46:08.685Z,99.99
2018-09-17T02:47:08.610Z,99.99
2018-09-17T02:48:08.534Z,99.99
2018-09-17T02:49:08.761Z,99.99
2018-09-17T02:50:08.384Z,99.99
2018-09-17T02:51:08.310Z,99.99
2018-09-17T02:52:08.235Z,99.99
2018-09-17T02:53:08.160Z,99.99
2018-09-17T02:54:08.084Z,99.99
2018-09-17T02:55:08.009Z,99.99
2018-09-17T02:56:07.933Z,99.99
2018-09-17T02:57:07.857Z,99.99
2018-09-17T02:58:07.783Z,99.99
2018-09-17T02:59:07.707Z,99.99
2018-09-17T03:00:07.632Z,99.99
2018-09-17T03:01:07.557Z,99.99
2018-09-17T03:02:07.485Z,99.99
2018-09-17T03:03:07.408Z,99.99
2018-09-17T03:04:07.332Z,99.99
2018-09-17T03:05:07.257Z,99.99
2018-09-17T03:06:07.182Z,99.99
2018-09-17T03:07:07.106Z,99.99
2018-09-17T03:08:07.031Z,99.99
2018-09-17T03:09:06.956Z,99.99
2018-09-17T03:10:06.881Z,99.99
2018-09-17T03:11:06.807Z,99.99
2018-09-17T03:12:06.731Z,99.99
2018-09-17T03:13:06.657Z,99.99
2018-09-17T03:14:06.581Z,99.99
2018-09-17T03:15:06.504Z,99.99
2018-09-17T03:16:06.430Z,99.99
2018-09-17T03:17:06.355Z,99.99
2018-09-17T03:18:06.279Z,99.99
2018-09-17T03:19:06.204Z,99.99
2018-09-17T03:20:06.126Z,99.99
2018-09-17T03:21:06.054Z,99.99
2018-09-17T03:22:05.977Z,99.99
2018-09-17T03:23:05.902Z,99.99
2018-09-17T03:24:05.826Z,99.99
2018-09-17T03:25:05.752Z,99.99
2018-09-17T03:26:05.678Z,99.99
2018-09-17T03:27:05.601Z,99.99
2018-09-17T03:28:05.529Z,99.99
2018-09-17T03:29:05.449Z,99.99
2018-09-17T03:30:05.376Z,99.99
2018-09-17T03:31:05.306Z,99.99
2018-09-17T03:32:05.226Z,99.99
2018-09-17T03:33:05.147Z,99.99
2018-09-17T03:34:05.074Z,99.99
2018-09-17T03:35:05.047Z,99.99
2018-09-17T03:36:04.920Z,99.99
2018-09-17T03:37:04.846Z,99.99
2018-09-17T03:38:04.770Z,99.99
2018-09-17T03:39:04.694Z,99.99
2018-09-17T03:40:04.619Z,99.99
2018-09-17T03:41:04.693Z,99.99
2018-09-17T03:42:04.469Z,99.99
2018-09-17T03:43:04.392Z,99.99
2018-09-17T03:44:04.316Z,99.99
2018-09-17T03:45:04.247Z,99.99
2018-09-17T03:46:04.193Z,99.99
2018-09-17T03:47:04.090Z,99.99
2018-09-17T03:48:04.015Z,99.99
2018-09-17T03:49:03.939Z,99.99
2018-09-17T03:50:03.864Z,99.99
2018-09-17T03:51:03.790Z,99.99
2018-09-17T03:52:03.712Z,99.99
2018-09-17T03:53:03.638Z,99.99
2018-09-17T03:54:03.562Z,99.99
2018-09-17T03:55:03.487Z,99.99
2018-09-17T03:56:03.410Z,99.99
2018-09-17T03:57:03.336Z,99.99
2018-09-17T03:58:03.259Z,99.99
2018-09-17T03:59:03.185Z,99.99
2018-09-17T04:00:03.108Z,99.99
2018-09-17T04:01:03.033Z,99.99
2018-09-17T04:02:02.959Z,99.99
2018-09-17T04:03:02.883Z,99.99
2018-09-17T04:04:02.806Z,99.99
2018-09-17T04:05:02.730Z,99.99
2018-09-17T04:06:02.654Z,99.99
2018-09-17T04:07:02.579Z,99.99
2018-09-17T04:08:02.503Z,99.99
2018-09-17T04:09:02.428Z,99.99
2018-09-17T04:10:02.351Z,99.99
2018-09-17T04:11:02.277Z,99.99
2018-09-17T04:12:02.205Z,99.99
2018-09-17T04:13:02.126Z,99.99
2018-09-17T04:14:02.051Z,99.99
2018-09-17T04:15:01.976Z,99.99
2018-09-17T04:16:01.948Z,99.99
2018-09-17T04:17:01.823Z,99.99
2018-09-17T04:18:01.752Z,99.99
2018-09-17T04:19:01.671Z,99.99
2018-09-17T04:20:01.595Z,99.99
2018-09-17T04:21:01.523Z,99.99
2018-09-17T04:22:01.448Z,99.99
2018-09-17T04:23:01.369Z,99.99
2018-09-17T04:24:01.295Z,99.99
2018-09-17T04:25:01.217Z,99.99
2018-09-17T04:26:01.443Z,99.99
2018-09-17T04:27:01.068Z,99.99
2018-09-17T04:28:00.991Z,99.99
2018-09-17T04:29:00.916Z,99.99
2018-09-17T04:30:00.841Z,99.99
2018-09-17T04:31:00.767Z,99.99
2018-09-17T04:32:00.689Z,99.99
2018-09-17T04:33:00.634Z,99.99
2018-09-17T04:34:00.540Z,99.99
2018-09-17T04:35:00.464Z,99.99
2018-09-17T04:36:00.388Z,99.99
2018-09-17T04:37:00.313Z,99.99
2018-09-17T04:38:00.287Z,99.99
2018-09-17T04:39:00.163Z,99.99
2018-09-17T04:40:00.087Z,99.99
2018-09-17T04:41:00.011Z,99.99
2018-09-17T04:41:59.935Z,99.99
2018-09-17T04:42:59.861Z,99.99
2018-09-17T04:43:59.783Z,99.99
2018-09-17T04:44:59.710Z,99.99
2018-09-17T04:45:59.635Z,99.99
2018-09-17T04:46:59.557Z,99.99
2018-09-17T04:47:59.482Z,99.99
2018-09-17T04:48:59.407Z,99.99
2018-09-17T04:49:59.331Z,99.99
2018-09-17T04:50:59.256Z,99.99
2018-09-17T04:51:59.179Z,99.99
2018-09-17T04:52:59.105Z,99.99
2018-09-17T04:53:59.031Z,99.99
2018-09-17T04:54:58.954Z,99.99
2018-09-17T04:55:58.877Z,99.99
2018-09-17T04:56:58.801Z,99.99
2018-09-17T04:57:58.729Z,99.99
2018-09-17T04:58:58.651Z,99.99
2018-09-17T04:59:58.575Z,99.99
2018-09-17T05:00:58.502Z,99.99
2018-09-17T05:01:58.424Z,99.99
2018-09-17T05:02:58.348Z,99.99
2018-09-17T05:03:58.273Z,99.99
2018-09-17T05:04:58.196Z,99.99
2018-09-17T05:05:58.121Z,99.99
2018-09-17T05:06:58.049Z,99.99
2018-09-17T05:07:57.968Z,99.99
2018-09-17T05:08:57.893Z,99.99
2018-09-17T05:09:57.818Z,99.99
2018-09-17T05:10:57.742Z,99.99
2018-09-17T05:11:57.666Z,99.99
2018-09-17T05:12:57.662Z,99.99
2018-09-17T05:13:57.516Z,99.99
2018-09-17T05:14:57.440Z,99.99
2018-09-17T05:15:57.362Z,99.99
2018-09-17T05:16:57.287Z,99.99
2018-09-17T05:17:57.214Z,99.99
2018-09-17T05:18:57.137Z,99.99
2018-09-17T05:19:57.061Z,99.99
2018-09-17T05:20:56.985Z,99.99
2018-09-17T05:21:56.909Z,99.99
2018-09-17T05:22:56.833Z,99.99
2018-09-17T05:23:56.757Z,99.99
2018-09-17T05:24:56.684Z,99.99
2018-09-17T05:25:56.606Z,99.99
2018-09-17T05:26:56.544Z,99.99
2018-09-17T05:27:56.457Z,99.99
2018-09-17T05:28:56.380Z,99.99
2018-09-17T05:29:56.304Z,99.99
2018-09-17T05:30:56.231Z,99.99
2018-09-17T05:31:56.153Z,99.99
2018-09-17T05:32:56.077Z,99.99
2018-09-17T05:33:56.003Z,99.99
2018-09-17T05:34:55.942Z,99.99
2018-09-17T05:35:55.852Z,99.99
2018-09-17T05:36:55.780Z,99.99
2018-09-17T05:37:55.704Z,99.99
2018-09-17T05:38:55.627Z,99.99
2018-09-17T05:39:55.550Z,99.99
2018-09-17T05:40:55.477Z,99.99
2018-09-17T05:41:55.400Z,99.99
2018-09-17T05:42:55.324Z,99.99
2018-09-17T05:43:55.251Z,99.99
2018-09-17T05:44:55.174Z,99.99
2018-09-17T05:45:55.099Z,99.99
2018-09-17T05:46:55.023Z,99.99
2018-09-17T05:47:54.950Z,99.99
2018-09-17T05:48:54.872Z,99.99
2018-09-17T05:49:54.797Z,99.99
2018-09-17T05:50:54.723Z,99.99
2018-09-17T05:51:54.646Z,99.99
2018-09-17T05:52:54.571Z,99.99
2018-09-17T05:53:54.710Z,99.99
2018-09-17T05:54:54.419Z,99.99
2018-09-17T05:55:54.344Z,99.99
2018-09-17T05:56:54.267Z,99.99
2018-09-17T05:57:54.198Z,99.99
2018-09-17T05:58:54.118Z,98.85
2018-09-17T05:59:54.043Z,98.56
2018-09-17T06:00:53.967Z,99.70
2018-09-17T06:01:53.890Z,99.32
2018-09-17T06:02:53.815Z,97.89
2018-09-17T06:03:53.740Z,97.61
2018-09-17T06:04:53.665Z,98.08
2018-09-17T06:05:53.628Z,98.46
2018-09-17T06:06:53.540Z,97.89
2018-09-17T06:07:53.438Z,98.46
2018-09-17T06:08:53.362Z,98.46
2018-09-17T06:09:53.365Z,98.65
2018-09-17T06:10:53.212Z,98.75
2018-09-17T06:11:53.204Z,98.46
2018-09-17T06:12:53.062Z,98.18
2018-09-17T06:13:52.984Z,98.56
2018-09-17T06:14:52.911Z,97.99
2018-09-17T06:15:52.834Z,97.99
2018-09-17T06:16:52.759Z,98.03
2018-09-17T06:17:52.685Z,98.03
2018-09-17T06:18:52.608Z,98.13
2018-09-17T06:19:52.532Z,99.95
2018-09-17T06:20:52.457Z,98.61
2018-09-17T06:21:52.382Z,98.70
2018-09-17T06:22:52.307Z,97.94
2018-09-17T06:23:52.282Z,97.46
2018-09-17T06:24:52.156Z,99.18
2018-09-17T06:25:52.081Z,98.70
2018-09-17T06:26:52.009Z,98.32
2018-09-17T06:27:51.933Z,99.75
2018-09-17T06:28:51.878Z,99.99
2018-09-17T06:29:51.779Z,99.99
2018-09-17T06:30:51.707Z,99.90
2018-09-17T06:31:51.633Z,99.99
2018-09-17T06:32:51.557Z,99.99
2018-09-17T06:33:51.481Z,99.99
2018-09-17T06:34:51.407Z,99.99
2018-09-17T06:35:51.331Z,99.99
2018-09-17T06:36:51.257Z,99.99
2018-09-17T06:37:51.182Z,99.99
2018-09-17T06:38:51.114Z,99.99
2018-09-17T06:39:51.031Z,99.99
2018-09-17T06:40:50.960Z,99.71
2018-09-17T06:41:50.881Z,99.80
2018-09-17T06:42:50.806Z,99.99
2018-09-17T06:43:50.733Z,99.99
2018-09-17T06:44:50.689Z,99.99
2018-09-17T06:45:50.583Z,99.99
2018-09-17T06:46:50.509Z,99.99
2018-09-17T06:47:50.433Z,99.99
2018-09-17T06:48:50.363Z,99.99
2018-09-17T06:49:50.384Z,99.99
2018-09-17T06:50:50.211Z,99.99
2018-09-17T06:51:50.138Z,99.99
2018-09-17T06:52:50.060Z,99.99
2018-09-17T06:53:50.022Z,99.99
2018-09-17T06:54:49.912Z,99.99
2018-09-17T06:55:49.837Z,99.99
2018-09-17T06:56:49.763Z,99.99
2018-09-17T06:57:49.689Z,99.99
2018-09-17T06:58:49.614Z,99.99
2018-09-17T06:59:49.540Z,99.99
2018-09-17T07:00:49.517Z,99.99
2018-09-17T07:01:49.392Z,99.99
2018-09-17T07:02:49.318Z,99.99
2018-09-17T07:03:49.244Z,99.99
2018-09-17T07:04:49.170Z,99.99
2018-09-17T07:05:49.098Z,99.99
2018-09-17T07:06:49.025Z,99.99
2018-09-17T07:07:48.949Z,99.99
2018-09-17T07:08:48.877Z,99.99
2018-09-17T07:09:48.804Z,99.99
2018-09-17T07:10:48.731Z,99.99
2018-09-17T07:11:48.656Z,99.99
2018-09-17T07:12:48.584Z,99.99
2018-09-17T07:13:48.508Z,99.99
2018-09-17T07:14:48.436Z,99.99
2018-09-17T07:15:48.464Z,99.99
2018-09-17T07:16:48.292Z,99.99
2018-09-17T07:17:48.214Z,99.99
2018-09-17T07:18:48.142Z,99.99
2018-09-17T07:19:48.068Z,99.99
2018-09-17T07:20:47.996Z,99.99
2018-09-17T07:21:47.922Z,99.99
2018-09-17T07:22:47.851Z,99.99
2018-09-17T07:23:47.775Z,99.99
2018-09-17T07:24:47.703Z,99.99
2018-09-17T07:25:47.630Z,99.99
2018-09-17T07:26:47.808Z,99.99
2018-09-17T07:27:47.485Z,99.99
2018-09-17T07:28:47.411Z,99.99
2018-09-17T07:29:47.339Z,99.99
2018-09-17T07:30:47.265Z,99.99
2018-09-17T07:31:47.190Z,99.99
2018-09-17T07:32:47.125Z,99.99
2018-09-17T07:33:47.046Z,99.99
2018-09-17T07:34:46.974Z,99.99
2018-09-17T07:35:46.907Z,99.99
2018-09-17T07:36:46.828Z,99.99
2018-09-17T07:37:46.756Z,99.99
2018-09-17T07:38:46.683Z,99.99
2018-09-17T07:39:46.613Z,99.99
2018-09-17T07:40:46.541Z,99.99
2018-09-17T07:41:46.464Z,99.99
2018-09-17T07:42:46.394Z,99.99
2018-09-17T07:43:46.320Z,99.99
2018-09-17T07:44:46.249Z,99.99
2018-09-17T07:45:46.178Z,99.99
2018-09-17T07:46:46.105Z,99.99
2018-09-17T07:47:46.060Z,99.73
2018-09-17T07:48:45.961Z,99.05
2018-09-17T07:49:45.889Z,97.76
2018-09-17T07:50:45.816Z,97.86
2018-09-17T07:51:45.744Z,96.94
2018-09-17T07:52:45.682Z,96.85
2018-09-17T07:53:45.601Z,96.75
2018-09-17T07:54:45.530Z,95.70
2018-09-17T07:55:45.456Z,95.75
2018-09-17T07:56:45.386Z,94.88
2018-09-17T07:57:45.314Z,94.69
2018-09-17T07:58:45.248Z,93.25
2018-09-17T07:59:45.171Z,92.19
2018-09-17T08:00:45.100Z,90.84
2018-09-17T08:01:45.029Z,90.17
2018-09-17T08:02:44.957Z,89.22
2018-09-17T08:03:44.887Z,87.68
2018-09-17T08:04:44.813Z,87.05
2018-09-17T08:05:44.759Z,87.15
2018-09-17T08:06:44.672Z,85.41
2018-09-17T08:07:44.601Z,84.45
2018-09-17T08:08:44.529Z,84.50
2018-09-17T08:09:44.459Z,85.94
2018-09-17T08:10:44.388Z,87.96
2018-09-17T08:11:44.316Z,89.21
2018-09-17T08:12:44.247Z,89.40
2018-09-17T08:13:44.275Z,84.88
2018-09-17T08:14:44.105Z,84.88
2018-09-17T08:15:44.032Z,82.96
2018-09-17T08:16:43.961Z,82.29
2018-09-17T08:17:43.892Z,80.75
2018-09-17T08:18:43.820Z,78.58
2018-09-17T08:19:43.849Z,78.38
2018-09-17T08:20:43.680Z,77.81
2018-09-17T08:21:43.609Z,75.73
2018-09-17T08:22:43.537Z,76.01
2018-09-17T08:23:43.467Z,76.21
2018-09-17T08:24:43.398Z,75.54
2018-09-17T08:25:43.326Z,74.67
2018-09-17T08:26:43.256Z,74.19
2018-09-17T08:27:43.185Z,72.88
2018-09-17T08:28:43.114Z,72.01
2018-09-17T08:29:43.045Z,71.91
2018-09-17T08:30:42.974Z,71.62
2018-09-17T08:31:42.903Z,70.89
2018-09-17T08:32:42.833Z,70.02
2018-09-17T08:33:42.764Z,71.47
2018-09-17T08:34:42.693Z,70.12
2018-09-17T08:35:42.621Z,70.70
2018-09-17T08:36:42.551Z,69.93
2018-09-17T08:37:42.483Z,70.06
2018-09-17T08:38:42.410Z,70.06
2018-09-17T08:39:42.342Z,69.67
2018-09-17T08:40:42.270Z,68.90
2018-09-17T08:41:42.201Z,69.09
2018-09-17T08:42:42.129Z,68.80
2018-09-17T08:43:42.059Z,69.57
2018-09-17T08:44:41.990Z,68.32
2018-09-17T08:45:41.950Z,68.04
2018-09-17T08:46:41.851Z,68.90
2018-09-17T08:47:41.787Z,68.32
2018-09-17T08:48:41.712Z,68.52
2018-09-17T08:49:41.641Z,68.26
2018-09-17T08:50:41.622Z,68.45
2018-09-17T08:51:41.504Z,67.68
2018-09-17T08:52:41.455Z,67.78
2018-09-17T08:53:41.367Z,68.59
2018-09-17T08:54:41.293Z,67.71
2018-09-17T08:55:41.226Z,67.43
2018-09-17T08:56:41.154Z,67.52
2018-09-17T08:57:41.084Z,67.81
2018-09-17T08:58:41.015Z,66.66
2018-09-17T08:59:40.945Z,66.17
2018-09-17T09:00:40.875Z,66.20
2018-09-17T09:01:40.807Z,65.91
2018-09-17T09:02:40.741Z,63.60
2018-09-17T09:03:40.667Z,63.60
2018-09-17T09:04:40.599Z,63.24
2018-09-17T09:05:40.539Z,64.21
2018-09-17T09:06:40.560Z,63.15
2018-09-17T09:07:40.391Z,63.08
2018-09-17T09:08:40.322Z,61.70
2018-09-17T09:09:40.252Z,61.73
2018-09-17T09:10:40.184Z,61.99
2018-09-17T09:11:40.114Z,61.92
2018-09-17T09:12:40.045Z,62.60
2018-09-17T09:13:39.976Z,61.63
2018-09-17T09:14:39.908Z,61.73
2018-09-17T09:15:39.837Z,60.86
2018-09-17T09:16:39.769Z,60.76
2018-09-17T09:17:39.701Z,60.57
2018-09-17T09:18:39.635Z,60.67
2018-09-17T09:19:39.584Z,60.18
2018-09-17T09:20:39.493Z,60.67
2018-09-17T09:21:39.427Z,60.57
2018-09-17T09:22:39.410Z,60.31
2018-09-17T09:23:39.290Z,59.99
2018-09-17T09:24:39.217Z,59.63
2018-09-17T09:25:39.155Z,59.15
2018-09-17T09:26:39.080Z,59.63
2018-09-17T09:27:39.010Z,59.83
2018-09-17T09:28:38.945Z,60.02
2018-09-17T09:29:38.873Z,60.60
2018-09-17T09:30:38.804Z,60.11
2018-09-17T09:31:38.735Z,60.79
2018-09-17T09:32:38.665Z,60.89
2018-09-17T09:33:38.598Z,61.37
2018-09-17T09:34:38.529Z,60.57
2018-09-17T09:35:38.458Z,61.34
2018-09-17T09:36:38.389Z,61.63
2018-09-17T09:37:38.321Z,61.54
2018-09-17T09:38:38.253Z,62.70
2018-09-17T09:39:38.183Z,62.02
2018-09-17T09:40:38.116Z,61.54
2018-09-17T09:41:38.048Z,61.47
2018-09-17T09:42:37.978Z,60.89
2018-09-17T09:43:37.907Z,60.89
2018-09-17T09:44:37.840Z,61.37
2018-09-17T09:45:37.771Z,61.76
2018-09-17T09:46:37.703Z,61.60
2018-09-17T09:47:37.633Z,61.21
2018-09-17T09:48:37.566Z,59.53
2018-09-17T09:49:37.496Z,59.83
2018-09-17T09:50:37.428Z,60.60
2018-09-17T09:51:37.359Z,59.73
2018-09-17T09:52:37.302Z,60.60
2018-09-17T09:53:37.221Z,60.11
2018-09-17T09:54:37.153Z,60.31
2018-09-17T09:55:37.084Z,59.44
2018-09-17T09:56:37.015Z,60.63
2018-09-17T09:57:36.945Z,59.86
2018-09-17T09:58:36.880Z,59.08
2018-09-17T09:59:36.839Z,59.86
2018-09-17T10:00:36.791Z,59.86
2018-09-17T10:01:36.675Z,59.08
2018-09-17T10:02:36.603Z,59.08
2018-09-17T10:03:36.534Z,59.47
2018-09-17T10:04:36.465Z,59.28
2018-09-17T10:05:36.397Z,59.28
2018-09-17T10:06:36.329Z,59.40
2018-09-17T10:07:36.259Z,58.72
2018-09-17T10:08:36.191Z,58.92
2018-09-17T10:09:36.127Z,59.21
2018-09-17T10:10:36.054Z,59.50
2018-09-17T10:12:33.486Z,59.63
2018-09-17T10:13:33.417Z,58.17
2018-09-17T10:14:33.349Z,57.59
2018-09-17T10:15:33.280Z,57.79
2018-09-17T10:16:33.213Z,56.72
2018-09-17T10:17:33.143Z,56.62
2018-09-17T10:18:33.074Z,56.82
2018-09-17T10:19:33.008Z,57.40
2018-09-17T10:20:32.937Z,58.07
2018-09-17T10:21:32.870Z,57.59
2018-09-17T10:22:32.803Z,57.20
2018-09-17T10:23:32.734Z,58.17
2018-09-17T10:24:32.664Z,56.72
2018-09-17T10:25:32.596Z,57.28
2018-09-17T10:26:32.928Z,57.46
2018-09-17T10:27:32.463Z,57.86
2018-09-17T10:28:32.390Z,57.37
2018-09-17T10:29:32.324Z,58.07
2018-09-17T10:30:32.253Z,58.95
2018-09-17T10:31:32.185Z,57.69
2018-09-17T10:32:32.118Z,57.14
2018-09-17T10:33:32.050Z,56.16
2018-09-17T10:34:31.983Z,55.78
2018-09-17T10:35:31.915Z,55.32
2018-09-17T10:36:31.845Z,56.20
2018-09-17T10:37:31.877Z,56.07
2018-09-17T10:38:31.708Z,55.30
2018-09-17T10:39:31.671Z,56.16
2018-09-17T10:40:31.573Z,56.65
2018-09-17T10:41:31.505Z,56.68
2018-09-17T10:42:31.487Z,55.71
2018-09-17T10:43:31.370Z,53.75
2018-09-17T10:44:31.301Z,53.55
2018-09-17T10:45:31.233Z,54.43
2018-09-17T10:46:31.166Z,55.13
2018-09-17T10:47:31.098Z,55.04
2018-09-17T10:48:31.080Z,54.45
2018-09-17T10:49:30.962Z,54.64
2018-09-17T10:50:30.894Z,53.29
2018-09-17T10:51:30.826Z,52.32
2018-09-17T10:52:30.758Z,52.71
2018-09-17T10:53:30.691Z,53.49
2018-09-17T10:54:30.621Z,53.58
2018-09-17T10:55:30.555Z,53.41
2018-09-17T10:56:30.488Z,53.29
2018-09-17T10:57:30.420Z,53.61
2018-09-17T10:58:30.351Z,53.89
2018-09-17T10:59:30.283Z,52.61
2018-09-17T11:00:30.217Z,54.55
2018-09-17T11:01:30.150Z,54.55
2018-09-17T11:02:30.081Z,53.51
2018-09-17T11:03:30.013Z,52.93
2018-09-17T11:04:29.946Z,52.18
2018-09-17T11:05:29.879Z,51.16
2018-09-17T11:06:29.811Z,50.19
2018-09-17T11:07:29.744Z,50.09
2018-09-17T11:08:29.676Z,49.46
2018-09-17T11:09:29.610Z,51.11
2018-09-17T11:10:29.544Z,52.76
2018-09-17T11:11:29.475Z,51.89
2018-09-17T11:12:29.426Z,51.21
2018-09-17T11:13:29.344Z,51.11
2018-09-17T11:14:29.274Z,51.98
2018-09-17T11:15:29.207Z,51.40
2018-09-17T11:16:29.140Z,51.31
2018-09-17T11:17:29.184Z,50.53
2018-09-17T11:18:29.013Z,50.92
2018-09-17T11:19:28.990Z,50.65
2018-09-17T11:20:28.874Z,51.26
2018-09-17T11:21:28.810Z,51.06
2018-09-17T11:22:28.745Z,50.58
2018-09-17T11:23:28.675Z,49.24
2018-09-17T11:24:28.658Z,48.68
2018-09-17T11:25:28.543Z,49.07
2018-09-17T11:26:28.475Z,48.61
2018-09-17T11:27:28.411Z,48.88
2018-09-17T11:28:28.344Z,48.78
2018-09-17T11:29:28.378Z,49.29
2018-09-17T11:30:28.214Z,48.15
2018-09-17T11:31:28.184Z,48.17
2018-09-17T11:32:28.083Z,47.20
2018-09-17T11:33:28.019Z,47.61
2018-09-17T11:34:28.005Z,46.83
2018-09-17T11:35:27.891Z,47.53
2018-09-17T11:36:27.827Z,46.25
2018-09-17T11:37:27.763Z,47.61
2018-09-17T11:38:27.698Z,45.78
2018-09-17T11:39:27.636Z,45.64
2018-09-17T11:40:27.623Z,44.17
2018-09-17T11:41:27.508Z,43.68
2018-09-17T11:42:27.444Z,43.19
2018-09-17T11:43:27.380Z,43.00
2018-09-17T11:44:29.937Z,42.71
2018-09-17T11:45:27.254Z,43.29
2018-09-17T11:46:27.190Z,42.63
2018-09-17T11:47:27.127Z,43.24
2018-09-17T11:48:27.098Z,41.70
2018-09-17T11:49:27.004Z,42.69
2018-09-17T11:50:26.940Z,41.33
2018-09-17T11:51:26.884Z,41.23
2018-09-17T11:52:26.822Z,41.03
2018-09-17T11:53:26.759Z,40.64
2018-09-17T11:54:26.697Z,41.54
2018-09-17T11:55:26.736Z,41.07
2018-09-17T11:56:26.577Z,41.03
2018-09-17T11:57:26.516Z,39.78
2018-09-17T11:58:26.456Z,38.34
2018-09-17T11:59:26.396Z,39.92
2018-09-17T12:03:26.214Z,37.62
2018-09-17T12:04:26.127Z,37.89
2018-09-17T12:05:26.043Z,38.14
2018-09-17T12:06:26.210Z,38.75
2018-09-17T12:07:25.973Z,36.80
2018-09-17T12:08:25.865Z,36.91
2018-09-17T12:15:26.092Z,35.32
2018-09-17T12:16:25.629Z,35.38
2018-09-17T12:17:25.567Z,36.63
2018-09-17T12:18:25.913Z,38.38
2018-09-17T12:19:25.230Z,38.77
2018-09-17T12:20:25.193Z,38.59
2018-09-17T12:21:25.108Z,38.32
2018-09-17T12:22:25.381Z,39.51
2018-09-17T12:23:24.992Z,38.34
2018-09-17T12:24:24.936Z,38.63
2018-09-17T12:25:24.877Z,38.78
2018-09-17T12:26:24.818Z,37.21
2018-09-17T12:27:24.761Z,35.53
2018-09-17T12:28:24.705Z,35.25
2018-09-17T12:30:12.402Z,35.80
2018-09-17T12:31:12.098Z,33.84
2018-09-17T12:32:13.451Z,33.80
2018-09-17T12:33:11.978Z,34.45
2018-09-17T12:34:11.924Z,34.44
2018-09-17T12:35:11.864Z,34.45
2018-09-17T12:36:11.808Z,35.28
2018-09-17T12:37:11.750Z,37.12
2018-09-17T12:38:11.694Z,37.26
2018-09-17T12:39:11.640Z,36.51
2018-09-17T12:40:11.580Z,35.73
2018-09-17T12:41:11.525Z,35.32
2018-09-17T12:42:11.470Z,35.19
2018-09-17T12:43:11.411Z,35.48
2018-09-17T12:44:11.353Z,35.13
2018-09-17T12:45:11.297Z,36.65
2018-09-17T12:46:11.241Z,32.92
2018-09-17T12:47:11.186Z,33.18
2018-09-17T12:48:11.128Z,32.40
2018-09-17T12:49:11.072Z,33.20
2018-09-17T12:50:11.015Z,32.92
2018-09-17T12:51:10.976Z,32.76
2018-09-17T12:52:10.901Z,33.36
2018-09-17T12:53:13.470Z,31.71
2018-09-17T12:54:10.799Z,30.49
2018-09-17T12:55:10.735Z,31.84
2018-09-17T12:56:10.679Z,31.86
2018-09-17T12:57:10.677Z,31.07
2018-09-17T12:58:10.567Z,32.50
2018-09-17T13:00:23.042Z,31.16
2018-09-17T13:01:22.986Z,31.83
2018-09-17T13:02:22.930Z,32.61
2018-09-17T13:03:22.908Z,32.42